Terminal Aerodrome Forecast
Issued by NWS

Home | Current Version | Previous Version | Graphics & Text | Print | Product List | Glossary Off
Versions: 1 2 3 4 5 6 7 8 9 10 11 12 13 14 15 16

000
FTUS43 KFGF 170245 AAA
TAFBJI
TAF AMD
KBJI 170245Z 1703/1724 00000KT 5SM BR SKC
     FM170500 00000KT 3SM BR SKC
     FM171600 VRB03KT P6SM FEW150
     FM172100 20007KT P6SM SCT200=

USA.gov is the U.S. government's official web portal to all federal, state and local government web resources and services.